sensor_id;sensor_type;location;lat;lon;timestamp;temperature;humidity
40828;DHT22;26549;50.918;5.338;2023-08-07T00:00:47;14.70;99.90
40828;DHT22;26549;50.918;5.338;2023-08-07T00:03:13;14.60;99.90
40828;DHT22;26549;50.918;5.338;2023-08-07T00:05:47;14.60;99.90
40828;DHT22;26549;50.918;5.338;2023-08-07T00:08:13;14.60;99.90
40828;DHT22;26549;50.918;5.338;2023-08-07T00:10:39;14.60;99.90
40828;DHT22;26549;50.918;5.338;2023-08-07T00:13:05;14.70;99.90
40828;DHT22;26549;50.918;5.338;2023-08-07T00:15:31;14.70;99.90
40828;DHT22;26549;50.918;5.338;2023-08-07T00:17:59;14.70;99.90
40828;DHT22;26549;50.918;5.338;2023-08-07T00:20:24;14.70;99.90
40828;DHT22;26549;50.918;5.338;2023-08-07T00:22:50;14.70;99.90
40828;DHT22;26549;50.918;5.338;2023-08-07T00:25:16;14.80;99.90
40828;DHT22;26549;50.918;5.338;2023-08-07T00:27:43;14.80;99.90
40828;DHT22;26549;50.918;5.338;2023-08-07T00:30:09;14.80;99.90
40828;DHT22;26549;50.918;5.338;2023-08-07T00:32:35;14.80;99.90
40828;DHT22;26549;50.918;5.338;2023-08-07T00:35:00;14.60;99.90
40828;DHT22;26549;50.918;5.338;2023-08-07T00:37:26;14.50;99.90
40828;DHT22;26549;50.918;5.338;2023-08-07T00:39:52;14.50;99.90
40828;DHT22;26549;50.918;5.338;2023-08-07T00:42:18;14.60;99.90
40828;DHT22;26549;50.918;5.338;2023-08-07T00:44:43;14.70;99.90
40828;DHT22;26549;50.918;5.338;2023-08-07T00:47:09;14.70;99.90
40828;DHT22;26549;50.918;5.338;2023-08-07T00:49:36;14.70;99.90
40828;DHT22;26549;50.918;5.338;2023-08-07T00:52:02;14.70;99.90
40828;DHT22;26549;50.918;5.338;2023-08-07T00:54:28;14.70;99.90
40828;DHT22;26549;50.918;5.338;2023-08-07T00:56:54;14.70;99.90
40828;DHT22;26549;50.918;5.338;2023-08-07T00:59:20;14.60;99.90
40828;DHT22;26549;50.918;5.338;2023-08-07T01:01:46;14.50;99.90
40828;DHT22;26549;50.918;5.338;2023-08-07T01:04:12;14.60;99.90
40828;DHT22;26549;50.918;5.338;2023-08-07T01:06:38;14.70;99.90
40828;DHT22;26549;50.918;5.338;2023-08-07T01:09:04;14.60;99.90
40828;DHT22;26549;50.918;5.338;2023-08-07T01:11:48;14.60;99.90
40828;DHT22;26549;50.918;5.338;2023-08-07T01:14:49;14.70;99.90
40828;DHT22;26549;50.918;5.338;2023-08-07T01:17:17;14.60;99.90
40828;DHT22;26549;50.918;5.338;2023-08-07T01:19:45;14.70;99.90
40828;DHT22;26549;50.918;5.338;2023-08-07T01:22:13;14.60;99.90
40828;DHT22;26549;50.918;5.338;2023-08-07T01:24:43;14.50;99.90
40828;DHT22;26549;50.918;5.338;2023-08-07T01:27:20;14.60;99.90
40828;DHT22;26549;50.918;5.338;2023-08-07T01:32:49;14.60;99.90
40828;DHT22;26549;50.918;5.338;2023-08-07T01:35:22;14.60;99.90
40828;DHT22;26549;50.918;5.338;2023-08-07T01:37:53;14.60;99.90
40828;DHT22;26549;50.918;5.338;2023-08-07T01:40:21;14.60;99.90
40828;DHT22;26549;50.918;5.338;2023-08-07T01:42:47;14.70;99.90
40828;DHT22;26549;50.918;5.338;2023-08-07T01:45:21;14.70;99.90
40828;DHT22;26549;50.918;5.338;2023-08-07T01:47:48;14.70;99.90
40828;DHT22;26549;50.918;5.338;2023-08-07T01:50:13;14.60;99.90
40828;DHT22;26549;50.918;5.338;2023-08-07T01:52:39;14.70;99.90
40828;DHT22;26549;50.918;5.338;2023-08-07T01:55:05;14.80;99.90
40828;DHT22;26549;50.918;5.338;2023-08-07T01:57:31;14.60;99.90
40828;DHT22;26549;50.918;5.338;2023-08-07T01:59:56;14.50;99.90
40828;DHT22;26549;50.918;5.338;2023-08-07T02:02:22;14.50;99.90
40828;DHT22;26549;50.918;5.338;2023-08-07T02:04:49;14.60;99.90
40828;DHT22;26549;50.918;5.338;2023-08-07T02:07:14;14.50;99.90
40828;DHT22;26549;50.918;5.338;2023-08-07T02:09:40;14.50;99.90
40828;DHT22;26549;50.918;5.338;2023-08-07T02:12:06;14.40;99.90
40828;DHT22;26549;50.918;5.338;2023-08-07T02:14:32;14.50;99.90
40828;DHT22;26549;50.918;5.338;2023-08-07T02:16:59;14.60;99.90
40828;DHT22;26549;50.918;5.338;2023-08-07T02:19:25;14.70;99.90
40828;DHT22;26549;50.918;5.338;2023-08-07T02:21:51;14.70;99.90
40828;DHT22;26549;50.918;5.338;2023-08-07T02:24:17;14.80;99.90
40828;DHT22;26549;50.918;5.338;2023-08-07T02:26:45;14.70;99.90
40828;DHT22;26549;50.918;5.338;2023-08-07T02:29:11;14.60;99.90
40828;DHT22;26549;50.918;5.338;2023-08-07T02:31:36;14.70;99.90
40828;DHT22;26549;50.918;5.338;2023-08-07T02:34:02;14.70;99.90
40828;DHT22;26549;50.918;5.338;2023-08-07T02:36:28;14.80;99.90
40828;DHT22;26549;50.918;5.338;2023-08-07T02:38:54;14.90;99.90
40828;DHT22;26549;50.918;5.338;2023-08-07T02:41:20;14.90;99.90
40828;DHT22;26549;50.918;5.338;2023-08-07T02:43:46;15.00;99.90
40828;DHT22;26549;50.918;5.338;2023-08-07T02:46:12;15.00;99.90
40828;DHT22;26549;50.918;5.338;2023-08-07T02:48:38;15.10;99.90
40828;DHT22;26549;50.918;5.338;2023-08-07T02:51:05;14.90;99.90
40828;DHT22;26549;50.918;5.338;2023-08-07T02:53:31;14.80;99.90
40828;DHT22;26549;50.918;5.338;2023-08-07T02:55:57;14.80;99.90
40828;DHT22;26549;50.918;5.338;2023-08-07T02:58:23;14.80;99.90
40828;DHT22;26549;50.918;5.338;2023-08-07T03:00:49;14.80;99.90
40828;DHT22;26549;50.918;5.338;2023-08-07T03:03:14;14.70;99.90
40828;DHT22;26549;50.918;5.338;2023-08-07T03:05:51;14.70;99.90
40828;DHT22;26549;50.918;5.338;2023-08-07T03:08:17;14.70;99.90
40828;DHT22;26549;50.918;5.338;2023-08-07T03:10:53;14.70;99.90
40828;DHT22;26549;50.918;5.338;2023-08-07T03:13:19;14.50;99.90
40828;DHT22;26549;50.918;5.338;2023-08-07T03:15:46;14.50;99.90
40828;DHT22;26549;50.918;5.338;2023-08-07T03:18:14;14.60;99.90
40828;DHT22;26549;50.918;5.338;2023-08-07T03:20:40;14.50;99.90
40828;DHT22;26549;50.918;5.338;2023-08-07T03:23:06;14.40;99.90
40828;DHT22;26549;50.918;5.338;2023-08-07T03:25:32;14.50;99.90
40828;DHT22;26549;50.918;5.338;2023-08-07T03:27:57;14.60;99.90
40828;DHT22;26549;50.918;5.338;2023-08-07T03:30:23;14.50;99.90
40828;DHT22;26549;50.918;5.338;2023-08-07T03:32:49;14.50;99.90
40828;DHT22;26549;50.918;5.338;2023-08-07T03:35:16;14.60;99.90
40828;DHT22;26549;50.918;5.338;2023-08-07T03:37:42;14.50;99.90
40828;DHT22;26549;50.918;5.338;2023-08-07T03:40:08;14.30;99.90
40828;DHT22;26549;50.918;5.338;2023-08-07T03:42:33;14.30;99.90
40828;DHT22;26549;50.918;5.338;2023-08-07T03:44:59;14.20;99.90
40828;DHT22;26549;50.918;5.338;2023-08-07T03:47:26;14.20;99.90
40828;DHT22;26549;50.918;5.338;2023-08-07T03:49:52;14.20;99.90
40828;DHT22;26549;50.918;5.338;2023-08-07T03:52:17;14.20;99.90
40828;DHT22;26549;50.918;5.338;2023-08-07T03:54:44;14.30;99.90
40828;DHT22;26549;50.918;5.338;2023-08-07T03:57:09;14.20;99.90
40828;DHT22;26549;50.918;5.338;2023-08-07T03:59:36;14.30;99.90
40828;DHT22;26549;50.918;5.338;2023-08-07T04:02:02;14.40;99.90
40828;DHT22;26549;50.918;5.338;2023-08-07T04:04:28;14.40;99.90
40828;DHT22;26549;50.918;5.338;2023-08-07T04:06:54;14.30;99.90
40828;DHT22;26549;50.918;5.338;2023-08-07T04:09:20;14.30;99.90
40828;DHT22;26549;50.918;5.338;2023-08-07T04:11:45;14.20;99.90
40828;DHT22;26549;50.918;5.338;2023-08-07T04:14:11;14.10;99.90
40828;DHT22;26549;50.918;5.338;2023-08-07T04:16:37;14.10;99.90
40828;DHT22;26549;50.918;5.338;2023-08-07T04:19:03;14.10;99.90
40828;DHT22;26549;50.918;5.338;2023-08-07T04:21:32;14.10;99.90
40828;DHT22;26549;50.918;5.338;2023-08-07T04:23:58;14.00;99.90
40828;DHT22;26549;50.918;5.338;2023-08-07T04:26:27;14.10;99.90
40828;DHT22;26549;50.918;5.338;2023-08-07T04:28:53;14.10;99.90
40828;DHT22;26549;50.918;5.338;2023-08-07T04:31:19;14.00;99.90
40828;DHT22;26549;50.918;5.338;2023-08-07T04:33:47;14.10;99.90
40828;DHT22;26549;50.918;5.338;2023-08-07T04:36:12;14.10;99.90
40828;DHT22;26549;50.918;5.338;2023-08-07T04:38:38;14.10;99.90
40828;DHT22;26549;50.918;5.338;2023-08-07T04:41:04;14.10;99.90
40828;DHT22;26549;50.918;5.338;2023-08-07T04:43:29;14.10;99.90
40828;DHT22;26549;50.918;5.338;2023-08-07T04:45:55;14.10;99.90
40828;DHT22;26549;50.918;5.338;2023-08-07T04:48:21;14.10;99.90
40828;DHT22;26549;50.918;5.338;2023-08-07T04:50:50;14.10;99.90
40828;DHT22;26549;50.918;5.338;2023-08-07T04:53:16;14.20;99.90
40828;DHT22;26549;50.918;5.338;2023-08-07T04:55:42;14.10;99.90
40828;DHT22;26549;50.918;5.338;2023-08-07T04:58:07;14.10;99.90
40828;DHT22;26549;50.918;5.338;2023-08-07T05:00:33;14.10;99.90
40828;DHT22;26549;50.918;5.338;2023-08-07T05:02:59;14.10;99.90
40828;DHT22;26549;50.918;5.338;2023-08-07T05:05:27;14.20;99.90
40828;DHT22;26549;50.918;5.338;2023-08-07T05:07:55;14.10;99.90
40828;DHT22;26549;50.918;5.338;2023-08-07T05:10:20;14.20;99.90
40828;DHT22;26549;50.918;5.338;2023-08-07T05:12:46;14.10;99.90
40828;DHT22;26549;50.918;5.338;2023-08-07T05:15:12;14.20;99.90
40828;DHT22;26549;50.918;5.338;2023-08-07T05:17:38;14.20;99.90
40828;DHT22;26549;50.918;5.338;2023-08-07T05:20:04;14.20;99.90
40828;DHT22;26549;50.918;5.338;2023-08-07T05:22:31;14.20;99.90
40828;DHT22;26549;50.918;5.338;2023-08-07T05:24:56;14.20;99.90
40828;DHT22;26549;50.918;5.338;2023-08-07T05:27:22;14.30;99.90
40828;DHT22;26549;50.918;5.338;2023-08-07T05:29:48;14.30;99.90
40828;DHT22;26549;50.918;5.338;2023-08-07T05:32:15;14.30;99.90
40828;DHT22;26549;50.918;5.338;2023-08-07T05:34:43;14.20;99.90
40828;DHT22;26549;50.918;5.338;2023-08-07T05:37:09;14.20;99.90
40828;DHT22;26549;50.918;5.338;2023-08-07T05:39:35;14.30;99.90
40828;DHT22;26549;50.918;5.338;2023-08-07T05:42:02;14.30;99.90
40828;DHT22;26549;50.918;5.338;2023-08-07T05:44:29;14.30;99.90
40828;DHT22;26549;50.918;5.338;2023-08-07T05:46:55;14.40;99.90
40828;DHT22;26549;50.918;5.338;2023-08-07T05:49:22;14.40;99.90
40828;DHT22;26549;50.918;5.338;2023-08-07T05:51:47;14.50;99.90
40828;DHT22;26549;50.918;5.338;2023-08-07T05:54:13;14.60;99.90
40828;DHT22;26549;50.918;5.338;2023-08-07T05:56:41;14.50;99.90
40828;DHT22;26549;50.918;5.338;2023-08-07T05:59:06;14.60;99.90
40828;DHT22;26549;50.918;5.338;2023-08-07T06:01:32;14.60;99.90
40828;DHT22;26549;50.918;5.338;2023-08-07T06:03:59;14.60;99.90
40828;DHT22;26549;50.918;5.338;2023-08-07T06:06:25;14.60;99.90
40828;DHT22;26549;50.918;5.338;2023-08-07T06:08:56;14.60;99.90
40828;DHT22;26549;50.918;5.338;2023-08-07T06:11:23;14.60;99.90
40828;DHT22;26549;50.918;5.338;2023-08-07T06:13:49;14.70;99.90
40828;DHT22;26549;50.918;5.338;2023-08-07T06:16:15;14.70;99.90
40828;DHT22;26549;50.918;5.338;2023-08-07T06:18:41;14.90;99.90
40828;DHT22;26549;50.918;5.338;2023-08-07T06:21:06;14.90;99.90
40828;DHT22;26549;50.918;5.338;2023-08-07T06:23:36;14.90;99.90
40828;DHT22;26549;50.918;5.338;2023-08-07T06:26:02;15.00;99.90
40828;DHT22;26549;50.918;5.338;2023-08-07T06:28:33;15.10;99.90
40828;DHT22;26549;50.918;5.338;2023-08-07T06:31:03;15.10;99.90
40828;DHT22;26549;50.918;5.338;2023-08-07T06:33:29;15.10;99.90
40828;DHT22;26549;50.918;5.338;2023-08-07T06:35:55;15.10;99.90
40828;DHT22;26549;50.918;5.338;2023-08-07T06:38:21;15.20;99.90
40828;DHT22;26549;50.918;5.338;2023-08-07T06:40:46;15.20;99.90
40828;DHT22;26549;50.918;5.338;2023-08-07T06:43:12;15.30;99.90
40828;DHT22;26549;50.918;5.338;2023-08-07T06:45:38;15.40;99.90
40828;DHT22;26549;50.918;5.338;2023-08-07T06:48:03;15.50;99.90
40828;DHT22;26549;50.918;5.338;2023-08-07T06:50:29;15.50;99.90
40828;DHT22;26549;50.918;5.338;2023-08-07T06:52:55;15.60;99.90
40828;DHT22;26549;50.918;5.338;2023-08-07T06:55:22;15.60;99.90
40828;DHT22;26549;50.918;5.338;2023-08-07T06:57:48;15.50;99.90
40828;DHT22;26549;50.918;5.338;2023-08-07T07:00:14;15.40;99.90
40828;DHT22;26549;50.918;5.338;2023-08-07T07:02:40;15.50;99.90
40828;DHT22;26549;50.918;5.338;2023-08-07T07:05:06;15.90;99.90
40828;DHT22;26549;50.918;5.338;2023-08-07T07:07:32;16.10;99.90
40828;DHT22;26549;50.918;5.338;2023-08-07T07:09:58;16.10;99.90
40828;DHT22;26549;50.918;5.338;2023-08-07T07:12:29;16.20;99.90
40828;DHT22;26549;50.918;5.338;2023-08-07T07:14:55;16.10;99.90
40828;DHT22;26549;50.918;5.338;2023-08-07T07:17:21;16.10;99.90
40828;DHT22;26549;50.918;5.338;2023-08-07T07:19:46;16.10;99.90
40828;DHT22;26549;50.918;5.338;2023-08-07T07:22:12;16.10;99.90
40828;DHT22;26549;50.918;5.338;2023-08-07T07:24:38;16.00;99.90
40828;DHT22;26549;50.918;5.338;2023-08-07T07:27:04;16.00;99.90
40828;DHT22;26549;50.918;5.338;2023-08-07T07:29:30;16.10;99.90
40828;DHT22;26549;50.918;5.338;2023-08-07T07:31:56;16.00;99.90
40828;DHT22;26549;50.918;5.338;2023-08-07T07:34:22;16.10;99.90
40828;DHT22;26549;50.918;5.338;2023-08-07T07:36:48;16.20;99.90
40828;DHT22;26549;50.918;5.338;2023-08-07T07:39:14;16.50;99.90
40828;DHT22;26549;50.918;5.338;2023-08-07T07:41:41;16.50;99.90
40828;DHT22;26549;50.918;5.338;2023-08-07T07:44:07;16.80;99.90
40828;DHT22;26549;50.918;5.338;2023-08-07T07:46:33;17.00;99.90
40828;DHT22;26549;50.918;5.338;2023-08-07T07:48:59;17.00;99.90
40828;DHT22;26549;50.918;5.338;2023-08-07T07:51:25;17.20;99.90
40828;DHT22;26549;50.918;5.338;2023-08-07T07:53:52;17.40;99.90
40828;DHT22;26549;50.918;5.338;2023-08-07T07:56:17;17.30;99.90
40828;DHT22;26549;50.918;5.338;2023-08-07T07:58:43;17.30;99.90
40828;DHT22;26549;50.918;5.338;2023-08-07T08:01:09;17.30;99.90
40828;DHT22;26549;50.918;5.338;2023-08-07T08:03:35;17.40;99.90
40828;DHT22;26549;50.918;5.338;2023-08-07T08:06:01;17.60;99.90
40828;DHT22;26549;50.918;5.338;2023-08-07T08:08:27;17.50;99.90
40828;DHT22;26549;50.918;5.338;2023-08-07T08:10:52;17.50;99.90
40828;DHT22;26549;50.918;5.338;2023-08-07T08:13:18;17.40;99.90
40828;DHT22;26549;50.918;5.338;2023-08-07T08:15:44;17.40;99.90
40828;DHT22;26549;50.918;5.338;2023-08-07T08:18:11;17.40;99.90
40828;DHT22;26549;50.918;5.338;2023-08-07T08:20:38;17.40;99.90
40828;DHT22;26549;50.918;5.338;2023-08-07T08:23:04;17.50;99.90
40828;DHT22;26549;50.918;5.338;2023-08-07T08:25:31;17.60;99.90
40828;DHT22;26549;50.918;5.338;2023-08-07T08:27:58;17.80;99.90
40828;DHT22;26549;50.918;5.338;2023-08-07T08:30:25;17.80;99.90
40828;DHT22;26549;50.918;5.338;2023-08-07T08:32:51;17.70;99.90
40828;DHT22;26549;50.918;5.338;2023-08-07T08:35:17;17.90;99.90
40828;DHT22;26549;50.918;5.338;2023-08-07T08:37:43;18.00;99.90
40828;DHT22;26549;50.918;5.338;2023-08-07T08:40:09;18.10;99.90
40828;DHT22;26549;50.918;5.338;2023-08-07T08:42:43;18.10;99.90
40828;DHT22;26549;50.918;5.338;2023-08-07T08:45:15;18.00;99.90
40828;DHT22;26549;50.918;5.338;2023-08-07T08:47:44;18.00;99.90
40828;DHT22;26549;50.918;5.338;2023-08-07T08:50:13;18.00;99.90
40828;DHT22;26549;50.918;5.338;2023-08-07T08:52:44;18.10;99.90
40828;DHT22;26549;50.918;5.338;2023-08-07T08:55:11;18.30;99.90
40828;DHT22;26549;50.918;5.338;2023-08-07T08:57:38;18.20;99.90
40828;DHT22;26549;50.918;5.338;2023-08-07T09:00:08;18.10;99.90
40828;DHT22;26549;50.918;5.338;2023-08-07T09:02:48;18.20;99.90
40828;DHT22;26549;50.918;5.338;2023-08-07T09:05:15;18.30;99.90
40828;DHT22;26549;50.918;5.338;2023-08-07T09:07:42;18.40;99.90
40828;DHT22;26549;50.918;5.338;2023-08-07T09:10:13;18.50;99.90
40828;DHT22;26549;50.918;5.338;2023-08-07T09:12:57;18.30;99.90
40828;DHT22;26549;50.918;5.338;2023-08-07T09:15:25;18.00;99.90
40828;DHT22;26549;50.918;5.338;2023-08-07T09:17:51;18.20;99.90
40828;DHT22;26549;50.918;5.338;2023-08-07T09:20:18;18.20;99.90
40828;DHT22;26549;50.918;5.338;2023-08-07T09:22:45;18.20;99.90
40828;DHT22;26549;50.918;5.338;2023-08-07T09:25:11;18.20;99.90
40828;DHT22;26549;50.918;5.338;2023-08-07T09:27:38;18.30;99.90
40828;DHT22;26549;50.918;5.338;2023-08-07T09:30:05;18.40;99.90
40828;DHT22;26549;50.918;5.338;2023-08-07T09:32:33;18.40;99.90
40828;DHT22;26549;50.918;5.338;2023-08-07T09:34:59;18.40;99.90
40828;DHT22;26549;50.918;5.338;2023-08-07T09:37:27;18.40;99.90
40828;DHT22;26549;50.918;5.338;2023-08-07T09:39:53;18.50;99.90
40828;DHT22;26549;50.918;5.338;2023-08-07T09:42:19;18.40;99.90
40828;DHT22;26549;50.918;5.338;2023-08-07T09:44:45;18.30;99.90
40828;DHT22;26549;50.918;5.338;2023-08-07T09:47:13;18.50;99.90
40828;DHT22;26549;50.918;5.338;2023-08-07T09:49:40;18.50;99.90
40828;DHT22;26549;50.918;5.338;2023-08-07T09:52:07;18.70;99.90
40828;DHT22;26549;50.918;5.338;2023-08-07T09:54:33;19.00;99.90
40828;DHT22;26549;50.918;5.338;2023-08-07T09:57:03;18.90;99.90
40828;DHT22;26549;50.918;5.338;2023-08-07T09:59:29;18.80;99.90
40828;DHT22;26549;50.918;5.338;2023-08-07T10:01:55;18.70;99.90
40828;DHT22;26549;50.918;5.338;2023-08-07T10:04:25;18.70;99.90
40828;DHT22;26549;50.918;5.338;2023-08-07T10:06:51;18.50;99.90
40828;DHT22;26549;50.918;5.338;2023-08-07T10:09:18;18.60;99.90
40828;DHT22;26549;50.918;5.338;2023-08-07T10:11:44;18.40;99.90
40828;DHT22;26549;50.918;5.338;2023-08-07T10:14:11;18.40;99.90
40828;DHT22;26549;50.918;5.338;2023-08-07T10:16:39;18.60;99.90
40828;DHT22;26549;50.918;5.338;2023-08-07T10:19:10;18.70;99.90
40828;DHT22;26549;50.918;5.338;2023-08-07T10:21:39;18.70;99.90
40828;DHT22;26549;50.918;5.338;2023-08-07T10:24:08;18.70;99.90
40828;DHT22;26549;50.918;5.338;2023-08-07T10:26:36;18.90;99.90
40828;DHT22;26549;50.918;5.338;2023-08-07T10:29:06;18.50;99.90
40828;DHT22;26549;50.918;5.338;2023-08-07T10:31:34;18.70;99.90
40828;DHT22;26549;50.918;5.338;2023-08-07T10:34:02;19.00;99.90
40828;DHT22;26549;50.918;5.338;2023-08-07T10:36:35;19.20;99.90
40828;DHT22;26549;50.918;5.338;2023-08-07T10:39:08;19.50;99.90
40828;DHT22;26549;50.918;5.338;2023-08-07T10:41:52;19.60;99.90
40828;DHT22;26549;50.918;5.338;2023-08-07T10:44:23;19.70;99.90
40828;DHT22;26549;50.918;5.338;2023-08-07T10:46:54;19.70;99.90
40828;DHT22;26549;50.918;5.338;2023-08-07T10:49:40;19.50;99.90
40828;DHT22;26549;50.918;5.338;2023-08-07T10:52:13;19.70;99.90
40828;DHT22;26549;50.918;5.338;2023-08-07T10:54:48;19.70;99.90
40828;DHT22;26549;50.918;5.338;2023-08-07T10:57:16;19.60;99.90
40828;DHT22;26549;50.918;5.338;2023-08-07T11:02:25;19.60;99.90
40828;DHT22;26549;50.918;5.338;2023-08-07T11:04:53;19.60;99.90
40828;DHT22;26549;50.918;5.338;2023-08-07T11:07:26;19.70;99.90
40828;DHT22;26549;50.918;5.338;2023-08-07T11:09:56;19.70;99.90
40828;DHT22;26549;50.918;5.338;2023-08-07T11:12:29;19.50;99.90
40828;DHT22;26549;50.918;5.338;2023-08-07T11:14:56;19.50;99.90
40828;DHT22;26549;50.918;5.338;2023-08-07T11:17:28;19.40;99.90
40828;DHT22;26549;50.918;5.338;2023-08-07T11:19:55;19.40;99.90
40828;DHT22;26549;50.918;5.338;2023-08-07T11:22:22;19.30;99.90
40828;DHT22;26549;50.918;5.338;2023-08-07T11:24:50;19.30;99.90
40828;DHT22;26549;50.918;5.338;2023-08-07T11:27:16;19.40;99.90
40828;DHT22;26549;50.918;5.338;2023-08-07T11:29:47;19.50;99.90
40828;DHT22;26549;50.918;5.338;2023-08-07T11:32:14;19.70;99.90
40828;DHT22;26549;50.918;5.338;2023-08-07T11:34:40;19.80;99.90
40828;DHT22;26549;50.918;5.338;2023-08-07T11:37:05;20.20;99.90
40828;DHT22;26549;50.918;5.338;2023-08-07T11:39:31;20.10;99.90
40828;DHT22;26549;50.918;5.338;2023-08-07T11:41:57;20.10;99.90
40828;DHT22;26549;50.918;5.338;2023-08-07T11:44:23;19.90;99.90
40828;DHT22;26549;50.918;5.338;2023-08-07T11:46:50;20.00;99.90
40828;DHT22;26549;50.918;5.338;2023-08-07T11:49:17;20.00;99.90
40828;DHT22;26549;50.918;5.338;2023-08-07T11:51:43;20.10;99.90
40828;DHT22;26549;50.918;5.338;2023-08-07T11:54:14;20.20;99.90
40828;DHT22;26549;50.918;5.338;2023-08-07T11:56:41;20.00;99.90
40828;DHT22;26549;50.918;5.338;2023-08-07T11:59:08;20.00;99.90
40828;DHT22;26549;50.918;5.338;2023-08-07T12:01:38;20.10;99.90
40828;DHT22;26549;50.918;5.338;2023-08-07T12:04:09;20.20;99.90
40828;DHT22;26549;50.918;5.338;2023-08-07T12:06:36;20.10;99.90
40828;DHT22;26549;50.918;5.338;2023-08-07T12:09:05;20.20;99.90
40828;DHT22;26549;50.918;5.338;2023-08-07T12:11:38;20.20;99.90
40828;DHT22;26549;50.918;5.338;2023-08-07T12:14:05;20.30;99.90
40828;DHT22;26549;50.918;5.338;2023-08-07T12:16:35;20.30;99.90
40828;DHT22;26549;50.918;5.338;2023-08-07T12:19:03;20.20;99.90
40828;DHT22;26549;50.918;5.338;2023-08-07T12:21:29;20.30;99.90
40828;DHT22;26549;50.918;5.338;2023-08-07T12:23:59;20.30;99.90
40828;DHT22;26549;50.918;5.338;2023-08-07T12:26:28;20.50;99.90
40828;DHT22;26549;50.918;5.338;2023-08-07T12:28:53;20.50;99.90
40828;DHT22;26549;50.918;5.338;2023-08-07T12:31:20;20.50;99.90
40828;DHT22;26549;50.918;5.338;2023-08-07T12:33:47;20.50;99.90
40828;DHT22;26549;50.918;5.338;2023-08-07T12:36:12;20.50;99.40
40828;DHT22;26549;50.918;5.338;2023-08-07T12:38:40;20.50;99.90
40828;DHT22;26549;50.918;5.338;2023-08-07T12:41:06;20.40;99.40
40828;DHT22;26549;50.918;5.338;2023-08-07T12:43:32;20.30;99.80
40828;DHT22;26549;50.918;5.338;2023-08-07T12:45:59;20.30;99.90
40828;DHT22;26549;50.918;5.338;2023-08-07T12:48:25;20.20;99.90
40828;DHT22;26549;50.918;5.338;2023-08-07T12:50:53;20.40;99.90
40828;DHT22;26549;50.918;5.338;2023-08-07T12:53:18;20.30;99.50
40828;DHT22;26549;50.918;5.338;2023-08-07T12:55:44;20.30;99.30
40828;DHT22;26549;50.918;5.338;2023-08-07T12:58:11;20.30;99.90
40828;DHT22;26549;50.918;5.338;2023-08-07T13:00:38;20.30;99.40
40828;DHT22;26549;50.918;5.338;2023-08-07T13:03:04;20.40;99.80
40828;DHT22;26549;50.918;5.338;2023-08-07T13:05:31;20.60;99.70
40828;DHT22;26549;50.918;5.338;2023-08-07T13:07:57;20.70;99.60
40828;DHT22;26549;50.918;5.338;2023-08-07T13:10:24;20.80;99.90
40828;DHT22;26549;50.918;5.338;2023-08-07T13:12:54;21.10;99.90
40828;DHT22;26549;50.918;5.338;2023-08-07T13:15:20;21.20;99.90
40828;DHT22;26549;50.918;5.338;2023-08-07T13:17:47;21.20;99.30
40828;DHT22;26549;50.918;5.338;2023-08-07T13:20:13;21.20;99.60
40828;DHT22;26549;50.918;5.338;2023-08-07T13:22:41;21.00;98.80
40828;DHT22;26549;50.918;5.338;2023-08-07T13:25:08;21.10;98.50
40828;DHT22;26549;50.918;5.338;2023-08-07T13:27:37;21.10;98.40
40828;DHT22;26549;50.918;5.338;2023-08-07T13:30:04;21.20;97.40
40828;DHT22;26549;50.918;5.338;2023-08-07T13:32:30;21.40;97.30
40828;DHT22;26549;50.918;5.338;2023-08-07T13:34:57;21.50;97.90
40828;DHT22;26549;50.918;5.338;2023-08-07T13:37:24;21.40;98.10
40828;DHT22;26549;50.918;5.338;2023-08-07T13:39:50;21.50;98.30
40828;DHT22;26549;50.918;5.338;2023-08-07T13:42:18;21.30;98.30
40828;DHT22;26549;50.918;5.338;2023-08-07T13:44:43;21.30;97.90
40828;DHT22;26549;50.918;5.338;2023-08-07T13:47:10;21.20;98.60
40828;DHT22;26549;50.918;5.338;2023-08-07T13:49:38;21.20;98.90
40828;DHT22;26549;50.918;5.338;2023-08-07T13:52:04;21.30;98.30
40828;DHT22;26549;50.918;5.338;2023-08-07T13:54:31;21.20;97.90
40828;DHT22;26549;50.918;5.338;2023-08-07T13:56:57;21.20;98.30
40828;DHT22;26549;50.918;5.338;2023-08-07T13:59:23;21.20;98.30
40828;DHT22;26549;50.918;5.338;2023-08-07T14:01:49;21.10;99.10
40828;DHT22;26549;50.918;5.338;2023-08-07T14:04:17;21.00;98.80
40828;DHT22;26549;50.918;5.338;2023-08-07T14:06:42;21.20;99.00
40828;DHT22;26549;50.918;5.338;2023-08-07T14:09:10;21.20;98.50
40828;DHT22;26549;50.918;5.338;2023-08-07T14:11:37;21.20;98.40
40828;DHT22;26549;50.918;5.338;2023-08-07T14:14:03;21.10;98.70
40828;DHT22;26549;50.918;5.338;2023-08-07T14:16:30;20.90;99.20
40828;DHT22;26549;50.918;5.338;2023-08-07T14:18:57;20.70;99.30
40828;DHT22;26549;50.918;5.338;2023-08-07T14:21:23;20.70;99.70
40828;DHT22;26549;50.918;5.338;2023-08-07T14:23:48;20.70;99.00
40828;DHT22;26549;50.918;5.338;2023-08-07T14:26:15;20.60;99.70
40828;DHT22;26549;50.918;5.338;2023-08-07T14:28:41;20.60;99.80
40828;DHT22;26549;50.918;5.338;2023-08-07T14:31:08;20.60;99.90
40828;DHT22;26549;50.918;5.338;2023-08-07T14:33:34;20.70;99.90
40828;DHT22;26549;50.918;5.338;2023-08-07T14:36:01;20.80;99.90
40828;DHT22;26549;50.918;5.338;2023-08-07T14:38:27;20.90;99.90
40828;DHT22;26549;50.918;5.338;2023-08-07T14:40:54;20.90;99.90
40828;DHT22;26549;50.918;5.338;2023-08-07T14:43:20;20.90;99.80
40828;DHT22;26549;50.918;5.338;2023-08-07T14:45:46;20.90;99.90
40828;DHT22;26549;50.918;5.338;2023-08-07T14:48:13;20.70;99.90
40828;DHT22;26549;50.918;5.338;2023-08-07T14:50:40;20.70;99.90
40828;DHT22;26549;50.918;5.338;2023-08-07T14:53:06;20.60;99.90
40828;DHT22;26549;50.918;5.338;2023-08-07T14:55:32;20.70;99.90
40828;DHT22;26549;50.918;5.338;2023-08-07T14:57:58;20.80;99.90
40828;DHT22;26549;50.918;5.338;2023-08-07T15:00:24;21.00;99.90
40828;DHT22;26549;50.918;5.338;2023-08-07T15:02:50;21.20;99.90
40828;DHT22;26549;50.918;5.338;2023-08-07T15:05:17;21.30;99.90
40828;DHT22;26549;50.918;5.338;2023-08-07T15:07:44;21.40;99.90
40828;DHT22;26549;50.918;5.338;2023-08-07T15:10:11;21.50;99.70
40828;DHT22;26549;50.918;5.338;2023-08-07T15:12:37;21.50;99.70
40828;DHT22;26549;50.918;5.338;2023-08-07T15:15:03;21.50;99.70
40828;DHT22;26549;50.918;5.338;2023-08-07T15:17:30;21.30;99.70
40828;DHT22;26549;50.918;5.338;2023-08-07T15:19:57;21.30;99.90
40828;DHT22;26549;50.918;5.338;2023-08-07T15:22:23;21.10;99.90
40828;DHT22;26549;50.918;5.338;2023-08-07T15:25:17;21.20;99.90
40828;DHT22;26549;50.918;5.338;2023-08-07T15:27:46;21.30;99.90
40828;DHT22;26549;50.918;5.338;2023-08-07T15:30:13;21.30;99.90
40828;DHT22;26549;50.918;5.338;2023-08-07T15:32:39;21.40;99.90
40828;DHT22;26549;50.918;5.338;2023-08-07T15:35:07;21.20;99.90